Decoded Metar for YCDU ( in ) (IATA:) | Meteo·Mobile Aviation Weather
aviador You're here:

YCDU Decoded Metar

in
Report Time2018-09-21 03:00:00
UTC Time2018-09-21 04:10:43
Flight Rules Old
Wind250° at 09 kt
W.Decomp.*RWY 29: 6.9 kt HW 5.8 kt LCW
RWY 17: 1.6 kt HW 8.9 kt RCW
W.Rank250° ranks 24
Current wind is below 250° avg. (12.6)
Visibility9999 m
Phenomena:N/A
Clouds:N/A
Expected CloudBase > 7,200 ft AGL from Temp-Dew spread
CeilingNone
Temp24°C
Dew Point06°C (31% RH)
AAT19.8°C
QNH1025 hPa
Raw Report
METAR YCDU 210300Z AUTO 25009KT 250V350 9999 // NCD 24/06 Q1025=

Extra information for YCDU:More info

Social comments